sensor_id;sensor_type;location;lat;lon;timestamp;P1;durP1;ratioP1;P2;durP2;ratioP2
69706;SDS011;56975;55.726;37.566;2023-11-19T00:00:00;12.9;;;7.1;;
69706;SDS011;56975;55.726;37.566;2023-11-19T00:05:00;16.9;;;8.7;;
69706;SDS011;56975;55.726;37.566;2023-11-19T00:15:00;22.5;;;8.8;;
69706;SDS011;56975;55.726;37.566;2023-11-19T00:20:00;19.9;;;8.9;;
69706;SDS011;56975;55.726;37.566;2023-11-19T00:30:00;14.9;;;8.2;;
69706;SDS011;56975;55.726;37.566;2023-11-19T00:35:00;23.2;;;9.3;;
69706;SDS011;56975;55.726;37.566;2023-11-19T00:45:00;15.6;;;7.8;;
69706;SDS011;56975;55.726;37.566;2023-11-19T00:50:00;22.6;;;8.2;;
69706;SDS011;56975;55.726;37.566;2023-11-19T01:00:00;24.2;;;10.4;;
69706;SDS011;56975;55.726;37.566;2023-11-19T01:05:00;14.6;;;8.6;;
69706;SDS011;56975;55.726;37.566;2023-11-19T01:15:00;17.6;;;8.8;;
69706;SDS011;56975;55.726;37.566;2023-11-19T01:20:00;20.0;;;8.9;;
69706;SDS011;56975;55.726;37.566;2023-11-19T01:30:00;18.4;;;9.7;;
69706;SDS011;56975;55.726;37.566;2023-11-19T01:35:00;24.7;;;12.9;;
69706;SDS011;56975;55.726;37.566;2023-11-19T01:50:00;17.3;;;7.7;;
69706;SDS011;56975;55.726;37.566;2023-11-19T02:00:00;20.0;;;9.4;;
69706;SDS011;56975;55.726;37.566;2023-11-19T02:05:00;22.1;;;10.3;;
69706;SDS011;56975;55.726;37.566;2023-11-19T02:15:00;19.7;;;9.3;;
69706;SDS011;56975;55.726;37.566;2023-11-19T02:20:00;22.1;;;10.7;;
69706;SDS011;56975;55.726;37.566;2023-11-19T02:30:00;17.8;;;8.2;;
69706;SDS011;56975;55.726;37.566;2023-11-19T02:35:00;16.4;;;10.3;;
69706;SDS011;56975;55.726;37.566;2023-11-19T02:45:00;27.6;;;9.5;;
69706;SDS011;56975;55.726;37.566;2023-11-19T02:50:00;15.7;;;8.1;;
69706;SDS011;56975;55.726;37.566;2023-11-19T03:00:00;25.8;;;10.0;;
69706;SDS011;56975;55.726;37.566;2023-11-19T03:05:00;18.2;;;9.4;;
69706;SDS011;56975;55.726;37.566;2023-11-19T03:15:00;20.2;;;9.3;;
69706;SDS011;56975;55.726;37.566;2023-11-19T03:20:00;24.7;;;10.0;;
69706;SDS011;56975;55.726;37.566;2023-11-19T03:30:00;23.3;;;10.4;;
69706;SDS011;56975;55.726;37.566;2023-11-19T03:35:00;25.8;;;10.7;;
69706;SDS011;56975;55.726;37.566;2023-11-19T03:45:00;20.7;;;9.6;;
69706;SDS011;56975;55.726;37.566;2023-11-19T03:50:00;17.6;;;9.1;;
69706;SDS011;56975;55.726;37.566;2023-11-19T04:00:00;19.3;;;9.4;;
69706;SDS011;56975;55.726;37.566;2023-11-19T04:05:00;15.5;;;8.2;;
69706;SDS011;56975;55.726;37.566;2023-11-19T04:15:00;21.2;;;8.6;;
69706;SDS011;56975;55.726;37.566;2023-11-19T04:20:00;19.0;;;8.4;;
69706;SDS011;56975;55.726;37.566;2023-11-19T04:30:00;15.0;;;7.2;;
69706;SDS011;56975;55.726;37.566;2023-11-19T04:35:00;16.9;;;6.6;;
69706;SDS011;56975;55.726;37.566;2023-11-19T04:45:00;17.3;;;9.1;;
69706;SDS011;56975;55.726;37.566;2023-11-19T04:50:00;22.6;;;10.0;;
69706;SDS011;56975;55.726;37.566;2023-11-19T05:00:00;15.5;;;7.7;;
69706;SDS011;56975;55.726;37.566;2023-11-19T05:05:00;22.0;;;9.5;;
69706;SDS011;56975;55.726;37.566;2023-11-19T05:15:00;22.3;;;11.5;;
69706;SDS011;56975;55.726;37.566;2023-11-19T05:20:00;19.8;;;10.6;;
69706;SDS011;56975;55.726;37.566;2023-11-19T05:30:00;27.3;;;11.7;;
69706;SDS011;56975;55.726;37.566;2023-11-19T05:35:00;21.5;;;10.5;;
69706;SDS011;56975;55.726;37.566;2023-11-19T05:45:00;21.1;;;10.8;;
69706;SDS011;56975;55.726;37.566;2023-11-19T05:50:00;22.8;;;9.7;;
69706;SDS011;56975;55.726;37.566;2023-11-19T06:00:00;23.3;;;10.7;;
69706;SDS011;56975;55.726;37.566;2023-11-19T06:05:00;25.5;;;13.0;;
69706;SDS011;56975;55.726;37.566;2023-11-19T06:15:00;20.9;;;10.9;;
69706;SDS011;56975;55.726;37.566;2023-11-19T06:20:00;23.8;;;12.1;;
69706;SDS011;56975;55.726;37.566;2023-11-19T06:30:00;18.3;;;10.2;;
69706;SDS011;56975;55.726;37.566;2023-11-19T06:35:00;17.2;;;9.3;;
69706;SDS011;56975;55.726;37.566;2023-11-19T06:45:00;21.8;;;11.2;;
69706;SDS011;56975;55.726;37.566;2023-11-19T06:50:00;23.9;;;10.7;;
69706;SDS011;56975;55.726;37.566;2023-11-19T07:00:00;24.3;;;10.8;;
69706;SDS011;56975;55.726;37.566;2023-11-19T07:05:00;22.5;;;10.6;;
69706;SDS011;56975;55.726;37.566;2023-11-19T07:15:00;23.4;;;11.6;;
69706;SDS011;56975;55.726;37.566;2023-11-19T07:20:00;35.5;;;13.7;;
69706;SDS011;56975;55.726;37.566;2023-11-19T07:30:00;27.4;;;12.7;;
69706;SDS011;56975;55.726;37.566;2023-11-19T07:35:00;24.7;;;12.7;;
69706;SDS011;56975;55.726;37.566;2023-11-19T07:45:00;28.4;;;13.0;;
69706;SDS011;56975;55.726;37.566;2023-11-19T07:50:00;29.3;;;12.4;;
69706;SDS011;56975;55.726;37.566;2023-11-19T08:00:00;25.2;;;11.8;;
69706;SDS011;56975;55.726;37.566;2023-11-19T08:05:00;23.9;;;11.8;;
69706;SDS011;56975;55.726;37.566;2023-11-19T08:15:00;21.6;;;11.3;;
69706;SDS011;56975;55.726;37.566;2023-11-19T08:20:00;22.2;;;12.3;;
69706;SDS011;56975;55.726;37.566;2023-11-19T08:30:00;27.1;;;13.3;;
69706;SDS011;56975;55.726;37.566;2023-11-19T08:35:00;28.4;;;14.2;;
69706;SDS011;56975;55.726;37.566;2023-11-19T08:45:00;27.7;;;10.8;;
69706;SDS011;56975;55.726;37.566;2023-11-19T08:50:00;26.2;;;13.6;;
69706;SDS011;56975;55.726;37.566;2023-11-19T09:00:00;23.2;;;11.9;;
69706;SDS011;56975;55.726;37.566;2023-11-19T09:05:00;20.2;;;11.7;;
69706;SDS011;56975;55.726;37.566;2023-11-19T09:15:00;20.3;;;10.7;;
69706;SDS011;56975;55.726;37.566;2023-11-19T09:20:00;17.8;;;9.6;;
69706;SDS011;56975;55.726;37.566;2023-11-19T09:45:00;20.9;;;10.0;;
69706;SDS011;56975;55.726;37.566;2023-11-19T09:50:00;21.7;;;10.9;;
69706;SDS011;56975;55.726;37.566;2023-11-19T10:00:00;18.7;;;9.6;;
69706;SDS011;56975;55.726;37.566;2023-11-19T10:05:00;17.0;;;9.1;;
69706;SDS011;56975;55.726;37.566;2023-11-19T10:15:00;18.6;;;10.1;;
69706;SDS011;56975;55.726;37.566;2023-11-19T10:20:00;19.5;;;10.0;;
69706;SDS011;56975;55.726;37.566;2023-11-19T10:30:00;18.4;;;9.9;;
69706;SDS011;56975;55.726;37.566;2023-11-19T10:35:07;18.8;;;9.3;;
69706;SDS011;56975;55.726;37.566;2023-11-19T10:45:00;22.5;;;9.4;;
69706;SDS011;56975;55.726;37.566;2023-11-19T10:50:00;19.4;;;9.9;;
69706;SDS011;56975;55.726;37.566;2023-11-19T11:00:00;20.5;;;11.6;;
69706;SDS011;56975;55.726;37.566;2023-11-19T11:05:00;28.0;;;10.4;;
69706;SDS011;56975;55.726;37.566;2023-11-19T11:15:00;16.5;;;7.5;;
69706;SDS011;56975;55.726;37.566;2023-11-19T11:20:00;17.7;;;9.4;;
69706;SDS011;56975;55.726;37.566;2023-11-19T11:30:01;17.9;;;10.7;;
69706;SDS011;56975;55.726;37.566;2023-11-19T11:35:04;20.2;;;11.2;;
69706;SDS011;56975;55.726;37.566;2023-11-19T11:45:00;21.5;;;10.0;;
69706;SDS011;56975;55.726;37.566;2023-11-19T11:50:04;17.2;;;8.5;;
69706;SDS011;56975;55.726;37.566;2023-11-19T12:00:01;14.6;;;8.1;;
69706;SDS011;56975;55.726;37.566;2023-11-19T12:05:00;17.9;;;9.5;;
69706;SDS011;56975;55.726;37.566;2023-11-19T12:15:00;19.0;;;9.3;;
69706;SDS011;56975;55.726;37.566;2023-11-19T12:20:00;21.3;;;10.2;;
69706;SDS011;56975;55.726;37.566;2023-11-19T12:30:00;19.4;;;8.6;;
69706;SDS011;56975;55.726;37.566;2023-11-19T12:35:00;17.2;;;7.7;;
69706;SDS011;56975;55.726;37.566;2023-11-19T12:45:00;13.5;;;7.5;;
69706;SDS011;56975;55.726;37.566;2023-11-19T12:50:00;23.1;;;9.7;;
69706;SDS011;56975;55.726;37.566;2023-11-19T13:00:00;21.7;;;9.6;;
69706;SDS011;56975;55.726;37.566;2023-11-19T13:10:01;17.8;;;8.6;;
69706;SDS011;56975;55.726;37.566;2023-11-19T13:15:00;17.8;;;10.1;;
69706;SDS011;56975;55.726;37.566;2023-11-19T13:25:00;23.3;;;10.8;;
69706;SDS011;56975;55.726;37.566;2023-11-19T13:30:00;27.0;;;11.8;;
69706;SDS011;56975;55.726;37.566;2023-11-19T13:40:00;19.2;;;9.4;;
69706;SDS011;56975;55.726;37.566;2023-11-19T13:45:00;23.3;;;10.9;;
69706;SDS011;56975;55.726;37.566;2023-11-19T13:55:00;13.9;;;8.5;;
69706;SDS011;56975;55.726;37.566;2023-11-19T14:00:00;21.2;;;10.9;;
69706;SDS011;56975;55.726;37.566;2023-11-19T14:10:00;20.2;;;10.0;;
69706;SDS011;56975;55.726;37.566;2023-11-19T14:15:00;16.8;;;8.2;;
69706;SDS011;56975;55.726;37.566;2023-11-19T14:25:00;17.9;;;8.0;;
69706;SDS011;56975;55.726;37.566;2023-11-19T14:30:00;17.2;;;10.0;;
69706;SDS011;56975;55.726;37.566;2023-11-19T14:40:00;17.1;;;7.8;;
69706;SDS011;56975;55.726;37.566;2023-11-19T14:45:00;22.1;;;9.5;;
69706;SDS011;56975;55.726;37.566;2023-11-19T14:55:00;19.8;;;10.4;;
69706;SDS011;56975;55.726;37.566;2023-11-19T15:00:00;25.9;;;12.6;;
69706;SDS011;56975;55.726;37.566;2023-11-19T15:10:00;23.9;;;11.8;;
69706;SDS011;56975;55.726;37.566;2023-11-19T15:15:00;15.3;;;9.1;;
69706;SDS011;56975;55.726;37.566;2023-11-19T15:25:00;30.1;;;14.2;;
69706;SDS011;56975;55.726;37.566;2023-11-19T15:30:00;21.8;;;10.8;;
69706;SDS011;56975;55.726;37.566;2023-11-19T15:40:00;20.1;;;12.1;;
69706;SDS011;56975;55.726;37.566;2023-11-19T15:45:00;25.4;;;13.0;;
69706;SDS011;56975;55.726;37.566;2023-11-19T15:55:00;30.0;;;15.1;;
69706;SDS011;56975;55.726;37.566;2023-11-19T16:00:00;29.4;;;15.3;;
69706;SDS011;56975;55.726;37.566;2023-11-19T16:10:00;30.3;;;16.0;;
69706;SDS011;56975;55.726;37.566;2023-11-19T16:15:00;26.3;;;12.3;;
69706;SDS011;56975;55.726;37.566;2023-11-19T16:25:00;33.1;;;15.2;;
69706;SDS011;56975;55.726;37.566;2023-11-19T16:30:00;26.0;;;11.3;;
69706;SDS011;56975;55.726;37.566;2023-11-19T16:40:00;22.4;;;11.8;;
69706;SDS011;56975;55.726;37.566;2023-11-19T16:45:00;21.4;;;12.8;;
69706;SDS011;56975;55.726;37.566;2023-11-19T16:55:00;33.6;;;13.5;;
69706;SDS011;56975;55.726;37.566;2023-11-19T17:00:00;32.1;;;14.7;;
69706;SDS011;56975;55.726;37.566;2023-11-19T17:10:00;33.2;;;16.9;;
69706;SDS011;56975;55.726;37.566;2023-11-19T17:15:00;18.3;;;10.0;;
69706;SDS011;56975;55.726;37.566;2023-11-19T17:25:00;28.6;;;14.9;;
69706;SDS011;56975;55.726;37.566;2023-11-19T17:30:00;21.8;;;11.4;;
69706;SDS011;56975;55.726;37.566;2023-11-19T17:40:00;28.9;;;15.6;;
69706;SDS011;56975;55.726;37.566;2023-11-19T17:45:00;28.6;;;14.1;;
69706;SDS011;56975;55.726;37.566;2023-11-19T17:55:00;33.2;;;15.6;;
69706;SDS011;56975;55.726;37.566;2023-11-19T18:00:00;39.8;;;16.7;;
69706;SDS011;56975;55.726;37.566;2023-11-19T18:10:00;41.3;;;18.5;;
69706;SDS011;56975;55.726;37.566;2023-11-19T18:15:00;32.0;;;15.8;;
69706;SDS011;56975;55.726;37.566;2023-11-19T18:25:00;39.5;;;18.1;;
69706;SDS011;56975;55.726;37.566;2023-11-19T18:30:00;29.7;;;14.5;;
69706;SDS011;56975;55.726;37.566;2023-11-19T18:40:00;32.2;;;16.1;;
69706;SDS011;56975;55.726;37.566;2023-11-19T18:45:00;29.6;;;16.0;;
69706;SDS011;56975;55.726;37.566;2023-11-19T18:55:00;33.0;;;17.0;;
69706;SDS011;56975;55.726;37.566;2023-11-19T19:00:00;35.0;;;17.4;;
69706;SDS011;56975;55.726;37.566;2023-11-19T19:10:00;39.6;;;16.5;;
69706;SDS011;56975;55.726;37.566;2023-11-19T19:15:00;39.3;;;18.7;;
69706;SDS011;56975;55.726;37.566;2023-11-19T19:25:00;44.7;;;20.5;;
69706;SDS011;56975;55.726;37.566;2023-11-19T19:30:00;43.1;;;19.5;;
69706;SDS011;56975;55.726;37.566;2023-11-19T19:40:00;35.2;;;16.0;;
69706;SDS011;56975;55.726;37.566;2023-11-19T19:45:00;41.9;;;17.5;;
69706;SDS011;56975;55.726;37.566;2023-11-19T19:55:00;50.8;;;21.7;;
69706;SDS011;56975;55.726;37.566;2023-11-19T20:00:00;43.0;;;19.6;;
69706;SDS011;56975;55.726;37.566;2023-11-19T20:10:00;40.6;;;16.9;;
69706;SDS011;56975;55.726;37.566;2023-11-19T20:15:00;30.9;;;15.6;;
69706;SDS011;56975;55.726;37.566;2023-11-19T20:25:00;35.2;;;16.7;;
69706;SDS011;56975;55.726;37.566;2023-11-19T20:30:00;49.9;;;19.7;;
69706;SDS011;56975;55.726;37.566;2023-11-19T20:40:00;39.6;;;15.3;;
69706;SDS011;56975;55.726;37.566;2023-11-19T20:45:00;40.7;;;19.2;;
69706;SDS011;56975;55.726;37.566;2023-11-19T20:55:00;42.0;;;18.1;;
69706;SDS011;56975;55.726;37.566;2023-11-19T21:00:00;38.9;;;17.3;;
69706;SDS011;56975;55.726;37.566;2023-11-19T21:10:00;41.0;;;18.2;;
69706;SDS011;56975;55.726;37.566;2023-11-19T21:15:00;36.8;;;17.4;;
69706;SDS011;56975;55.726;37.566;2023-11-19T21:25:00;38.0;;;17.2;;
69706;SDS011;56975;55.726;37.566;2023-11-19T21:30:00;40.3;;;15.0;;
69706;SDS011;56975;55.726;37.566;2023-11-19T21:40:00;30.5;;;15.4;;
69706;SDS011;56975;55.726;37.566;2023-11-19T21:45:00;33.4;;;15.4;;
69706;SDS011;56975;55.726;37.566;2023-11-19T21:55:00;34.4;;;15.4;;
69706;SDS011;56975;55.726;37.566;2023-11-19T22:00:00;31.3;;;14.9;;
69706;SDS011;56975;55.726;37.566;2023-11-19T22:10:00;29.5;;;12.3;;
69706;SDS011;56975;55.726;37.566;2023-11-19T22:15:00;21.7;;;11.7;;
69706;SDS011;56975;55.726;37.566;2023-11-19T22:25:00;25.9;;;12.4;;
69706;SDS011;56975;55.726;37.566;2023-11-19T22:30:00;21.7;;;10.0;;
69706;SDS011;56975;55.726;37.566;2023-11-19T22:40:00;31.2;;;13.1;;
69706;SDS011;56975;55.726;37.566;2023-11-19T22:45:00;22.3;;;11.5;;
69706;SDS011;56975;55.726;37.566;2023-11-19T22:55:00;22.4;;;11.6;;
69706;SDS011;56975;55.726;37.566;2023-11-19T23:00:00;24.5;;;11.9;;
69706;SDS011;56975;55.726;37.566;2023-11-19T23:10:00;25.3;;;12.5;;
69706;SDS011;56975;55.726;37.566;2023-11-19T23:15:00;28.8;;;13.2;;
69706;SDS011;56975;55.726;37.566;2023-11-19T23:25:00;27.4;;;12.8;;
69706;SDS011;56975;55.726;37.566;2023-11-19T23:30:00;24.1;;;12.8;;
69706;SDS011;56975;55.726;37.566;2023-11-19T23:40:00;25.0;;;12.6;;
69706;SDS011;56975;55.726;37.566;2023-11-19T23:45:00;24.5;;;13.2;;
69706;SDS011;56975;55.726;37.566;2023-11-19T23:55:00;25.3;;;13.6;;
